createdAt,value
2023-06-04T00:01:30.128Z,101022.53
2023-06-04T00:03:58.478Z,101006.22
2023-06-04T00:06:26.448Z,101014.78
2023-06-04T00:08:54.413Z,101011.38
2023-06-04T00:11:22.530Z,101020.09
2023-06-04T00:13:50.607Z,101012.38
2023-06-04T00:16:19.887Z,101009.78
2023-06-04T00:18:47.793Z,101023.63
2023-06-04T00:21:15.781Z,101015.00
2023-06-04T00:23:44.352Z,101007.28
2023-06-04T00:26:15.787Z,101009.88
2023-06-04T00:28:43.920Z,101009.91
2023-06-04T00:31:13.778Z,101011.66
2023-06-04T00:33:43.090Z,101015.13
2023-06-04T00:36:11.273Z,101005.66
2023-06-04T00:38:39.166Z,101015.19
2023-06-04T00:41:07.451Z,101011.78
2023-06-04T00:43:36.999Z,101012.66
2023-06-04T00:46:05.222Z,101010.97
2023-06-04T00:48:33.294Z,101005.81
2023-06-04T00:51:02.704Z,101011.00
2023-06-04T00:53:30.676Z,101010.16
2023-06-04T00:55:58.553Z,101011.00
2023-06-04T00:58:27.420Z,101010.16
2023-06-04T01:00:59.005Z,100999.81
2023-06-04T01:03:32.840Z,101006.72
2023-06-04T01:06:11.188Z,101002.41
2023-06-04T01:08:43.914Z,100998.94
2023-06-04T01:11:11.982Z,101008.44
2023-06-04T01:13:39.907Z,101002.44
2023-06-04T01:16:08.100Z,101002.44
2023-06-04T01:18:38.773Z,101006.75
2023-06-04T01:21:10.400Z,101005.03
2023-06-04T01:23:48.075Z,101005.91
2023-06-04T01:26:16.249Z,101005.06
2023-06-04T01:28:46.038Z,101011.97
2023-06-04T01:31:15.254Z,101005.03
2023-06-04T01:33:43.608Z,101004.97
2023-06-04T01:36:13.520Z,101001.53
2023-06-04T01:38:41.488Z,101005.81
2023-06-04T01:41:09.480Z,101004.06
2023-06-04T01:43:37.411Z,100998.91
2023-06-04T01:46:05.755Z,101009.25
2023-06-04T01:48:34.298Z,100998.88
2023-06-04T01:51:03.218Z,100996.31
2023-06-04T01:53:33.165Z,101002.34
2023-06-04T01:56:02.392Z,101001.47
2023-06-04T01:58:30.468Z,100997.16
2023-06-04T02:01:03.979Z,100995.41
2023-06-04T02:03:38.113Z,100991.94
2023-06-04T02:06:08.838Z,100994.53
2023-06-04T02:08:38.435Z,100991.94
2023-06-04T02:11:06.706Z,100991.88
2023-06-04T02:13:34.946Z,100994.50
2023-06-04T02:16:03.010Z,100995.41
2023-06-04T02:18:31.248Z,100992.00
2023-06-04T02:21:00.078Z,100991.19
2023-06-04T02:23:28.157Z,100992.09
2023-06-04T02:25:57.445Z,100996.47
2023-06-04T02:28:25.968Z,100987.03
2023-06-04T02:30:54.445Z,100991.34
2023-06-04T02:33:22.944Z,100993.13
2023-06-04T02:35:51.129Z,100999.19
2023-06-04T02:38:19.159Z,100989.75
2023-06-04T02:40:47.055Z,100987.19
2023-06-04T02:43:16.465Z,100992.38
2023-06-04T02:45:44.467Z,100993.25
2023-06-04T02:48:12.457Z,101001.00
2023-06-04T02:50:43.526Z,100999.28
2023-06-04T02:53:11.617Z,101003.59
2023-06-04T02:55:39.719Z,101002.72
2023-06-04T02:58:08.220Z,100988.09
2023-06-04T03:00:37.577Z,100994.97
2023-06-04T03:03:05.758Z,100997.59
2023-06-04T03:05:34.248Z,100995.03
2023-06-04T03:08:04.103Z,100994.16
2023-06-04T03:10:32.409Z,100999.28
2023-06-04T03:13:00.542Z,100993.28
2023-06-04T03:15:28.468Z,100993.28
2023-06-04T03:17:58.304Z,100996.72
2023-06-04T03:20:26.396Z,100997.56
2023-06-04T03:22:54.587Z,101005.31
2023-06-04T03:25:22.673Z,100994.94
2023-06-04T03:27:50.996Z,100998.41
2023-06-04T03:30:19.074Z,100999.25
2023-06-04T03:32:47.176Z,101000.97
2023-06-04T03:35:16.716Z,101000.09
2023-06-04T03:37:44.676Z,100996.63
2023-06-04T03:40:13.484Z,101001.78
2023-06-04T03:42:41.417Z,100998.34
2023-06-04T03:45:10.252Z,100998.28
2023-06-04T03:47:38.316Z,101000.00
2023-06-04T03:50:07.357Z,101003.47
2023-06-04T03:52:37.402Z,101011.22
2023-06-04T03:55:06.009Z,101001.75
2023-06-04T03:57:33.964Z,101005.22
2023-06-04T04:00:01.835Z,101006.94
2023-06-04T04:02:30.007Z,101008.66
2023-06-04T04:04:58.248Z,101012.13
2023-06-04T04:07:26.525Z,101011.22
2023-06-04T04:09:55.851Z,101009.50
2023-06-04T04:12:23.910Z,101006.06
2023-06-04T04:14:52.052Z,101009.47
2023-06-04T04:17:19.982Z,100998.25
2023-06-04T04:19:47.995Z,101002.50
2023-06-04T04:22:18.567Z,100999.88
2023-06-04T04:24:46.594Z,100997.19
2023-06-04T04:27:16.877Z,101005.69
2023-06-04T04:29:45.724Z,100998.72
2023-06-04T04:32:13.658Z,101002.13
2023-06-04T04:34:53.303Z,101001.13
2023-06-04T04:37:23.133Z,100999.28
2023-06-04T04:39:53.017Z,100999.19
2023-06-04T04:42:22.534Z,100992.13
2023-06-04T04:44:51.691Z,100997.19
2023-06-04T04:47:19.767Z,100993.59
2023-06-04T04:49:50.336Z,100993.47
2023-06-04T04:52:18.607Z,100993.31
2023-06-04T04:54:46.463Z,100991.38
2023-06-04T04:57:14.641Z,100992.03
2023-06-04T04:59:43.974Z,100994.34
2023-06-04T05:02:12.168Z,100992.50
2023-06-04T05:04:40.113Z,100995.00
2023-06-04T05:07:07.970Z,100985.25
2023-06-04T05:09:35.921Z,100988.41
2023-06-04T05:12:03.995Z,100982.72
2023-06-04T05:14:32.773Z,100988.13
2023-06-04T05:17:02.188Z,100992.72
2023-06-04T05:19:30.225Z,100986.94
2023-06-04T05:21:58.149Z,100989.59
2023-06-04T05:24:26.066Z,100989.53
2023-06-04T05:26:54.021Z,100981.84
2023-06-04T05:29:21.889Z,100981.88
2023-06-04T05:31:49.834Z,100978.53
2023-06-04T05:34:19.435Z,100981.34
2023-06-04T05:36:47.329Z,100982.34
2023-06-04T05:39:15.470Z,100987.63
2023-06-04T05:41:44.437Z,100976.38
2023-06-04T05:44:12.319Z,100980.06
2023-06-04T05:46:40.171Z,100975.22
2023-06-04T05:49:08.162Z,100978.34
2023-06-04T05:51:38.238Z,100980.56
2023-06-04T05:54:06.435Z,100985.41
2023-06-04T05:56:34.392Z,100977.66
2023-06-04T05:59:02.356Z,100981.47
2023-06-04T06:01:30.893Z,100987.59
2023-06-04T06:03:59.144Z,100987.84
2023-06-04T06:06:27.144Z,100982.72
2023-06-04T06:08:56.763Z,100979.59
2023-06-04T06:11:24.804Z,100981.94
2023-06-04T06:13:52.712Z,100985.09
2023-06-04T06:16:20.736Z,100990.66
2023-06-04T06:18:49.543Z,100995.38
2023-06-04T06:21:17.573Z,100992.75
2023-06-04T06:23:45.751Z,100986.31
2023-06-04T06:26:15.038Z,100978.72
2023-06-04T06:28:42.974Z,100989.78
2023-06-04T06:31:11.319Z,100983.88
2023-06-04T06:33:42.389Z,100995.31
2023-06-04T06:36:10.555Z,100997.31
2023-06-04T06:38:38.514Z,100985.72
2023-06-04T06:41:07.305Z,101002.84
2023-06-04T06:43:36.894Z,100997.03
2023-06-04T06:46:04.938Z,101000.38
2023-06-04T06:48:32.964Z,100997.63
2023-06-04T06:51:01.511Z,101000.22
2023-06-04T06:53:29.417Z,101004.09
2023-06-04T06:55:57.926Z,101000.78
2023-06-04T06:58:25.854Z,101012.63
2023-06-04T07:00:57.796Z,101006.84
2023-06-04T07:03:26.003Z,101004.72
2023-06-04T07:05:53.871Z,101010.13
2023-06-04T07:08:22.366Z,101010.06
2023-06-04T07:10:50.529Z,101003.56
2023-06-04T07:13:18.504Z,101006.19
2023-06-04T07:15:46.508Z,101011.16
2023-06-04T07:18:15.993Z,101003.13
2023-06-04T07:20:44.079Z,101005.75
2023-06-04T07:23:12.350Z,101002.81
2023-06-04T07:25:40.365Z,101001.56
2023-06-04T07:28:08.416Z,100998.09
2023-06-04T07:30:37.901Z,101008.94
2023-06-04T07:33:07.584Z,101008.09
2023-06-04T07:35:37.229Z,101003.66
2023-06-04T07:38:05.294Z,101008.59
2023-06-04T07:40:33.330Z,101006.53
2023-06-04T07:43:01.338Z,101009.41
2023-06-04T07:45:32.556Z,100999.31
2023-06-04T07:48:02.178Z,101000.16
2023-06-04T07:50:35.871Z,100994.97
2023-06-04T07:53:07.795Z,101005.75
2023-06-04T07:55:36.399Z,101005.38
2023-06-04T07:58:06.335Z,101007.47
2023-06-04T08:00:34.519Z,101009.13
2023-06-04T08:03:02.665Z,101014.84
2023-06-04T08:05:30.790Z,101007.31
2023-06-04T08:07:58.805Z,101015.91
2023-06-04T08:10:28.180Z,101015.59
2023-06-04T08:12:56.194Z,101014.38
2023-06-04T08:15:24.538Z,101014.66
2023-06-04T08:17:52.851Z,101005.22
2023-06-04T08:20:20.904Z,101003.25
2023-06-04T08:22:48.907Z,100996.88
2023-06-04T08:25:17.097Z,100994.91
2023-06-04T08:27:46.570Z,100997.16
2023-06-04T08:30:14.994Z,100993.66
2023-06-04T08:32:42.927Z,100994.69
2023-06-04T08:35:11.945Z,100990.38
2023-06-04T08:37:39.980Z,100989.34
2023-06-04T08:40:10.220Z,100991.66
2023-06-04T08:42:45.757Z,100986.28
2023-06-04T08:45:17.751Z,100989.75
2023-06-04T08:47:50.214Z,100978.59
2023-06-04T08:50:20.435Z,100981.31
2023-06-04T08:52:49.395Z,100984.84
2023-06-04T08:55:17.501Z,100982.97
2023-06-04T08:57:45.728Z,100986.22
2023-06-04T09:00:16.642Z,100980.03
2023-06-04T09:02:45.713Z,100980.13
2023-06-04T09:05:21.177Z,100976.59
2023-06-04T09:07:50.693Z,100979.84
2023-06-04T09:10:22.701Z,100986.53
2023-06-04T09:12:53.425Z,100987.03
2023-06-04T09:15:22.832Z,100988.41
2023-06-04T09:17:51.016Z,100977.63
2023-06-04T09:20:22.594Z,100984.56
2023-06-04T09:22:50.742Z,100985.53
2023-06-04T09:25:23.557Z,100976.16
2023-06-04T09:27:51.773Z,100973.84
2023-06-04T09:30:20.273Z,100976.66
2023-06-04T09:32:49.650Z,100973.06
2023-06-04T09:35:19.809Z,100972.72
2023-06-04T09:37:54.982Z,100966.16
2023-06-04T09:40:22.914Z,100958.13
2023-06-04T09:42:55.605Z,100965.22
2023-06-04T09:45:31.028Z,100960.81
2023-06-04T09:48:00.446Z,100962.50
2023-06-04T09:50:29.719Z,100964.84
2023-06-04T09:52:58.004Z,100970.81
2023-06-04T09:55:26.374Z,100967.25
2023-06-04T09:57:55.661Z,100966.03
2023-06-04T10:00:26.062Z,100961.44
2023-06-04T10:02:59.669Z,100954.31
2023-06-04T10:05:33.880Z,100961.66
2023-06-04T10:08:04.945Z,100948.47
2023-06-04T10:10:38.217Z,100944.03
2023-06-04T10:13:09.130Z,100940.94
2023-06-04T10:15:38.285Z,100936.69
2023-06-04T10:18:07.774Z,100932.94
2023-06-04T10:20:37.598Z,100925.94
2023-06-04T10:23:05.650Z,100925.56
2023-06-04T10:25:34.016Z,100921.25
2023-06-04T10:28:03.954Z,100927.44
2023-06-04T10:30:32.777Z,100921.25
2023-06-04T10:33:01.923Z,100925.00
2023-06-04T10:35:38.602Z,100912.59
2023-06-04T10:38:08.486Z,100915.56
2023-06-04T10:40:37.091Z,100910.44
2023-06-04T10:43:08.670Z,100909.97
2023-06-04T10:45:37.195Z,100911.47
2023-06-04T10:48:06.473Z,100912.16
2023-06-04T10:50:36.112Z,100910.56
2023-06-04T10:53:06.535Z,100913.25
2023-06-04T10:55:45.321Z,100903.84
2023-06-04T10:58:13.351Z,100920.41
2023-06-04T11:00:43.083Z,100910.19
2023-06-04T11:03:13.082Z,100907.19
2023-06-04T11:05:44.395Z,100906.09
2023-06-04T11:08:16.487Z,100901.38
2023-06-04T11:10:47.309Z,100911.56
2023-06-04T11:13:16.002Z,100906.25
2023-06-04T11:15:45.067Z,100900.72
2023-06-04T11:18:17.154Z,100899.06
2023-06-04T11:20:46.778Z,100900.19
2023-06-04T11:23:17.016Z,100894.16
2023-06-04T11:25:46.882Z,100893.03
2023-06-04T11:28:19.427Z,100904.25
2023-06-04T11:30:58.693Z,100896.97
2023-06-04T11:33:26.859Z,100895.97
2023-06-04T11:35:54.780Z,100897.22
2023-06-04T11:38:24.212Z,100897.19
2023-06-04T11:41:00.562Z,100893.72
2023-06-04T11:43:29.755Z,100891.59
2023-06-04T11:45:57.973Z,100895.06
2023-06-04T11:48:28.905Z,100886.50
2023-06-04T11:50:57.228Z,100889.19
2023-06-04T11:53:27.365Z,100895.88
2023-06-04T11:55:55.345Z,100891.25
2023-06-04T11:58:23.469Z,100901.06
2023-06-04T12:00:51.825Z,100893.06
2023-06-04T12:03:19.784Z,100900.66
2023-06-04T12:05:48.007Z,100897.75
2023-06-04T12:08:15.959Z,100901.31
2023-06-04T12:10:46.144Z,100903.50
2023-06-04T12:13:14.016Z,100909.25
2023-06-04T12:15:42.251Z,100905.28
2023-06-04T12:18:10.949Z,100888.72
2023-06-04T12:20:40.884Z,100900.91
2023-06-04T12:23:09.628Z,100898.63
2023-06-04T12:25:38.915Z,100902.81
2023-06-04T12:28:08.426Z,100904.75
2023-06-04T12:30:40.151Z,100905.06
2023-06-04T12:33:08.400Z,100902.56
2023-06-04T12:35:37.196Z,100893.00
2023-06-04T12:38:06.312Z,100900.97
2023-06-04T12:40:34.521Z,100902.91
2023-06-04T12:43:02.593Z,100893.19
2023-06-04T12:45:31.910Z,100894.44
2023-06-04T12:47:59.914Z,100898.25
2023-06-04T12:50:27.912Z,100900.16
2023-06-04T12:52:56.118Z,100898.88
2023-06-04T12:55:25.319Z,100891.94
2023-06-04T12:57:55.300Z,100895.28
2023-06-04T13:00:23.655Z,100890.66
2023-06-04T13:02:53.446Z,100878.19
2023-06-04T13:05:21.633Z,100886.69
2023-06-04T13:07:49.590Z,100879.31
2023-06-04T13:10:17.681Z,100877.50
2023-06-04T13:12:45.654Z,100876.59
2023-06-04T13:15:13.619Z,100886.28
2023-06-04T13:17:41.620Z,100879.47
2023-06-04T13:20:12.670Z,100878.78
2023-06-04T13:22:41.552Z,100882.03
2023-06-04T13:25:10.459Z,100874.94
2023-06-04T13:27:38.458Z,100878.41
2023-06-04T13:30:07.853Z,100878.78
2023-06-04T13:32:35.874Z,100876.63
2023-06-04T13:35:05.687Z,100869.97
2023-06-04T13:37:35.020Z,100871.06
2023-06-04T13:40:03.162Z,100866.97
2023-06-04T13:42:31.179Z,100879.03
2023-06-04T13:45:03.936Z,100873.66
2023-06-04T13:47:33.414Z,100862.28
2023-06-04T13:50:01.794Z,100857.09
2023-06-04T13:52:30.460Z,100865.19
2023-06-04T13:55:00.826Z,100861.28
2023-06-04T13:57:33.453Z,100855.44
2023-06-04T14:00:02.007Z,100862.47
2023-06-04T14:02:30.024Z,100852.91
2023-06-04T14:04:57.926Z,100868.50
2023-06-04T14:07:25.866Z,100857.00
2023-06-04T14:09:56.019Z,100857.13
2023-06-04T14:12:26.149Z,100851.88
2023-06-04T14:14:57.049Z,100852.59
2023-06-04T14:17:26.126Z,100855.91
2023-06-04T14:19:56.920Z,100854.91
2023-06-04T14:22:24.852Z,100848.78
2023-06-04T14:24:52.781Z,100853.19
2023-06-04T14:27:24.821Z,100843.84
2023-06-04T14:30:02.448Z,100845.81
2023-06-04T14:32:30.544Z,100851.00
2023-06-04T14:34:58.803Z,100833.97
2023-06-04T14:37:26.987Z,100848.91
2023-06-04T14:39:55.015Z,100856.13
2023-06-04T14:42:23.012Z,100850.38
2023-06-04T14:44:51.032Z,100854.91
2023-06-04T14:47:20.376Z,100857.53
2023-06-04T14:49:48.313Z,100849.56
2023-06-04T14:52:17.387Z,100844.31
2023-06-04T14:54:45.388Z,100841.38
2023-06-04T14:57:14.328Z,100837.84
2023-06-04T14:59:44.310Z,100839.53
2023-06-04T15:02:12.523Z,100848.25
2023-06-04T15:04:45.288Z,100848.13
2023-06-04T15:07:22.057Z,100842.66
2023-06-04T15:09:49.988Z,100836.50
2023-06-04T15:12:20.676Z,100834.75
2023-06-04T15:14:48.824Z,100833.63
2023-06-04T15:17:16.875Z,100835.31
2023-06-04T15:19:46.277Z,100833.81
2023-06-04T15:22:14.185Z,100837.56
2023-06-04T15:24:42.159Z,100838.69
2023-06-04T15:27:09.997Z,100832.78
2023-06-04T15:29:38.089Z,100835.66
2023-06-04T15:32:06.866Z,100831.41
2023-06-04T15:34:34.942Z,100830.69
2023-06-04T15:37:04.356Z,100832.44
2023-06-04T15:39:33.068Z,100827.13
2023-06-04T15:42:01.079Z,100828.78
2023-06-04T15:44:29.837Z,100821.66
2023-06-04T15:46:57.716Z,100828.47
2023-06-04T15:49:25.961Z,100830.31
2023-06-04T15:51:53.973Z,100823.44
2023-06-04T15:54:37.006Z,100824.50
2023-06-04T15:57:11.374Z,100820.59
2023-06-04T15:59:39.328Z,100819.16
2023-06-04T16:02:08.089Z,100815.81
2023-06-04T16:04:36.059Z,100819.41
2023-06-04T16:07:05.624Z,100815.88
2023-06-04T16:09:34.965Z,100808.72
2023-06-04T16:12:03.270Z,100816.38
2023-06-04T16:14:31.239Z,100812.88
2023-06-04T16:16:59.620Z,100813.63
2023-06-04T16:19:27.691Z,100808.41
2023-06-04T16:21:55.984Z,100814.44
2023-06-04T16:24:24.053Z,100815.19
2023-06-04T16:26:53.361Z,100823.94
2023-06-04T16:29:21.400Z,100817.78
2023-06-04T16:31:49.450Z,100812.59
2023-06-04T16:34:17.671Z,100817.97
2023-06-04T16:36:45.631Z,100817.31
2023-06-04T16:39:13.624Z,100821.91
2023-06-04T16:41:43.047Z,100814.28
2023-06-04T16:44:12.788Z,100809.25
2023-06-04T16:46:40.771Z,100815.44
2023-06-04T16:49:08.696Z,100823.34
2023-06-04T16:51:37.291Z,100820.06
2023-06-04T16:54:05.389Z,100821.03
2023-06-04T16:56:33.341Z,100825.69
2023-06-04T16:59:01.439Z,100821.56
2023-06-04T17:01:30.835Z,100817.28
2023-06-04T17:03:58.795Z,100823.25
2023-06-04T17:06:28.426Z,100819.72
2023-06-04T17:08:56.626Z,100825.69
2023-06-04T17:11:24.474Z,100825.56
2023-06-04T17:13:52.687Z,100816.78
2023-06-04T17:16:20.933Z,100812.25
2023-06-04T17:18:50.443Z,100818.38
2023-06-04T17:21:18.818Z,100813.31
2023-06-04T17:23:49.450Z,100827.25
2023-06-04T17:26:17.612Z,100820.28
2023-06-04T17:28:45.749Z,100825.56
2023-06-04T17:31:18.307Z,100824.63
2023-06-04T17:33:46.648Z,100827.41
2023-06-04T17:36:15.840Z,100822.31
2023-06-04T17:38:43.811Z,100827.75
2023-06-04T17:41:12.035Z,100833.97
2023-06-04T17:43:40.379Z,100836.78
2023-06-04T17:46:08.662Z,100840.53
2023-06-04T17:48:37.397Z,100832.06
2023-06-04T17:51:06.040Z,100827.13
2023-06-04T17:53:35.521Z,100833.47
2023-06-04T17:56:04.146Z,100838.00
2023-06-04T17:58:32.275Z,100834.81
2023-06-04T18:01:00.295Z,100840.28
2023-06-04T18:03:30.730Z,100843.13
2023-06-04T18:05:58.745Z,100842.50
2023-06-04T18:08:26.773Z,100836.69
2023-06-04T18:10:57.173Z,100839.44
2023-06-04T18:13:25.214Z,100846.44
2023-06-04T18:15:56.190Z,100839.59
2023-06-04T18:18:25.149Z,100842.25
2023-06-04T18:20:53.154Z,100841.47
2023-06-04T18:23:21.344Z,100855.44
2023-06-04T18:25:49.426Z,100851.13
2023-06-04T18:28:18.904Z,100852.94
2023-06-04T18:30:46.989Z,100864.09
2023-06-04T18:33:14.941Z,100857.16
2023-06-04T18:35:42.887Z,100861.28
2023-06-04T18:38:10.831Z,100864.66
2023-06-04T18:40:38.782Z,100862.88
2023-06-04T18:43:06.777Z,100864.66
2023-06-04T18:45:36.041Z,100863.72
2023-06-04T18:48:04.288Z,100868.09
2023-06-04T18:50:32.324Z,100867.16
2023-06-04T18:53:00.916Z,100871.56
2023-06-04T18:55:28.856Z,100875.84
2023-06-04T18:57:56.891Z,100880.34
2023-06-04T19:00:25.029Z,100883.03
2023-06-04T19:02:54.415Z,100881.47
2023-06-04T19:05:23.186Z,100882.44
2023-06-04T19:07:52.841Z,100886.06
2023-06-04T19:10:21.885Z,100881.00
2023-06-04T19:12:49.792Z,100888.13
2023-06-04T19:15:18.264Z,100892.50
2023-06-04T19:17:46.467Z,100889.03
2023-06-04T19:20:18.361Z,100891.66
2023-06-04T19:22:48.317Z,100897.72
2023-06-04T19:25:17.961Z,100904.72
2023-06-04T19:27:46.170Z,100899.50
2023-06-04T19:30:14.588Z,100904.75
2023-06-04T19:32:42.776Z,100903.13
2023-06-04T19:35:11.171Z,100903.16
2023-06-04T19:37:40.659Z,100890.44
2023-06-04T19:40:10.033Z,100892.16
2023-06-04T19:42:37.941Z,100908.75
2023-06-04T19:45:07.000Z,100910.56
2023-06-04T19:47:41.249Z,100905.50
2023-06-04T19:50:09.973Z,100913.47
2023-06-04T19:52:37.931Z,100912.53
2023-06-04T19:55:09.223Z,100910.09
2023-06-04T19:57:37.174Z,100908.44
2023-06-04T20:00:06.145Z,100907.78
2023-06-04T20:02:34.300Z,100916.59
2023-06-04T20:05:02.678Z,100915.00
2023-06-04T20:07:30.832Z,100915.97
2023-06-04T20:09:59.076Z,100926.56
2023-06-04T20:12:28.419Z,100919.69
2023-06-04T20:14:56.924Z,100918.09
2023-06-04T20:17:25.446Z,100920.84
2023-06-04T20:19:54.997Z,100927.75
2023-06-04T20:22:22.979Z,100920.88
2023-06-04T20:24:51.077Z,100924.41
2023-06-04T20:27:19.187Z,100917.50
2023-06-04T20:29:49.083Z,100926.28
2023-06-04T20:32:17.147Z,100923.78
2023-06-04T20:34:45.173Z,100923.03
2023-06-04T20:37:13.195Z,100925.00
2023-06-04T20:39:42.208Z,100921.63
2023-06-04T20:42:10.379Z,100919.94
2023-06-04T20:44:38.446Z,100925.22
2023-06-04T20:47:08.075Z,100919.28
2023-06-04T20:49:36.250Z,100918.59
2023-06-04T20:52:04.738Z,100929.09
2023-06-04T20:54:32.817Z,100928.38
2023-06-04T20:57:01.042Z,100928.41
2023-06-04T20:59:28.950Z,100936.31
2023-06-04T21:01:56.916Z,100934.59
2023-06-04T21:04:26.420Z,100929.41
2023-06-04T21:06:54.313Z,100932.88
2023-06-04T21:09:22.233Z,100934.88
2023-06-04T21:11:50.121Z,100928.88
2023-06-04T21:14:18.133Z,100932.56
2023-06-04T21:16:46.359Z,100936.41
2023-06-04T21:19:14.470Z,100936.84
2023-06-04T21:21:43.900Z,100933.84
2023-06-04T21:24:15.217Z,100935.97
2023-06-04T21:26:43.287Z,100935.31
2023-06-04T21:29:11.347Z,100945.88
2023-06-04T21:31:39.368Z,100939.91
2023-06-04T21:34:07.509Z,100947.81
2023-06-04T21:36:35.421Z,100953.06
2023-06-04T21:39:04.830Z,100947.00
2023-06-04T21:41:32.793Z,100942.69
2023-06-04T21:44:00.840Z,100953.06
2023-06-04T21:46:29.314Z,100952.19
2023-06-04T21:48:57.296Z,100945.25
2023-06-04T21:51:25.221Z,100946.03
2023-06-04T21:53:53.119Z,100947.69
2023-06-04T21:56:22.571Z,100950.22
2023-06-04T21:58:50.784Z,100958.91
2023-06-04T22:01:18.886Z,100959.91
2023-06-04T22:03:47.016Z,100957.47
2023-06-04T22:06:15.285Z,100956.66
2023-06-04T22:08:43.328Z,100962.00
2023-06-04T22:11:11.773Z,100956.91
2023-06-04T22:13:41.132Z,100958.66
2023-06-04T22:16:09.638Z,100958.66
2023-06-04T22:18:48.620Z,100961.41
2023-06-04T22:21:21.068Z,100963.28
2023-06-04T22:23:49.190Z,100955.63
2023-06-04T22:28:50.026Z,100947.06
2023-06-04T22:31:18.065Z,100949.63
2023-06-04T22:33:46.316Z,100957.34
2023-06-04T22:36:14.508Z,100958.88
2023-06-04T22:38:42.445Z,100956.97
2023-06-04T22:41:10.721Z,100959.38
2023-06-04T22:43:38.796Z,100960.16
2023-06-04T22:46:08.134Z,100968.69
2023-06-04T22:48:36.173Z,100966.00
2023-06-04T22:51:06.260Z,100966.75
2023-06-04T22:53:35.203Z,100952.91
2023-06-04T22:56:07.651Z,100965.13
2023-06-04T22:58:36.171Z,100964.44
2023-06-04T23:01:04.536Z,100966.38
2023-06-04T23:03:34.019Z,100960.44
2023-06-04T23:06:02.124Z,100958.75
2023-06-04T23:08:30.100Z,100969.22
2023-06-04T23:10:57.977Z,100969.22
2023-06-04T23:13:26.080Z,100966.69
2023-06-04T23:15:54.058Z,100969.41
2023-06-04T23:18:22.001Z,100965.13
2023-06-04T23:20:51.510Z,100960.75
2023-06-04T23:23:19.533Z,100969.50
2023-06-04T23:25:47.405Z,100970.47
2023-06-04T23:28:15.710Z,100970.56
2023-06-04T23:30:43.722Z,100971.50
2023-06-04T23:33:11.800Z,100972.38
2023-06-04T23:35:40.211Z,100971.50
2023-06-04T23:38:09.536Z,100976.69
2023-06-04T23:40:37.628Z,100969.69
2023-06-04T23:43:05.568Z,100975.72
2023-06-04T23:45:33.571Z,100967.97
2023-06-04T23:48:01.640Z,100973.13
2023-06-04T23:50:29.565Z,100964.47
2023-06-04T23:52:57.612Z,100968.03
2023-06-04T23:55:27.016Z,100962.84
2023-06-04T23:57:54.892Z,100971.50
